Time;durP1;ratioP1;P1;durP2;ratioP2;P2;SDS_P1;SDS_P2;PMS_P1;PMS_P2;Temp;Humidity;BMP_temperature;BMP_pressure;BME280_temperature;BME280_humidity;BME280_pressure;Samples;Min_cycle;Max_cycle;Signal;HPM_P1;HPM_P2
2021/07/11 00:01:33;;;;;;;19.35;13.73;;;16.50;93.10;;;;;;5005039;28;20054;-54
2021/07/11 00:04:00;;;;;;;18.23;13.27;;;16.40;93.20;;;;;;5012189;28;20060;-51
2021/07/11 00:06:26;;;;;;;18.20;13.57;;;16.40;93.20;;;;;;4977071;28;20124;-53
2021/07/11 00:08:53;;;;;;;19.33;14.40;;;16.40;93.20;;;;;;5002845;28;20096;-54
2021/07/11 00:11:19;;;;;;;18.58;13.43;;;16.40;93.30;;;;;;4994526;28;20046;-54
2021/07/11 00:13:45;;;;;;;19.08;13.70;;;16.40;93.30;;;;;;5008245;28;20049;-52
2021/07/11 00:16:11;;;;;;;20.40;14.18;;;16.30;93.40;;;;;;5004384;28;20041;-54
2021/07/11 00:18:37;;;;;;;19.30;13.75;;;16.30;93.30;;;;;;5009611;28;20046;-54
2021/07/11 00:21:03;;;;;;;17.08;13.50;;;16.30;93.30;;;;;;5017457;28;20045;-54
2021/07/11 00:23:28;;;;;;;18.00;13.75;;;16.30;93.30;;;;;;5018298;28;21228;-54
2021/07/11 00:25:54;;;;;;;18.67;13.57;;;16.20;93.40;;;;;;5005061;28;20076;-55
2021/07/11 00:28:20;;;;;;;18.10;14.15;;;16.20;93.60;;;;;;5010665;28;20046;-49
2021/07/11 00:30:46;;;;;;;18.25;13.95;;;16.20;93.50;;;;;;5016575;28;20138;-52
2021/07/11 00:33:12;;;;;;;20.55;13.57;;;16.20;93.60;;;;;;5013925;28;20068;-49
2021/07/11 00:35:38;;;;;;;18.58;14.32;;;16.20;93.50;;;;;;5016373;28;20054;-49
2021/07/11 00:38:05;;;;;;;20.02;14.40;;;16.20;93.40;;;;;;5008221;28;20485;-52
2021/07/11 00:40:30;;;;;;;19.30;14.35;;;16.10;93.50;;;;;;5019175;28;20108;-53
2021/07/11 00:42:56;;;;;;;19.98;13.95;;;16.10;93.70;;;;;;5025043;28;20395;-50
2021/07/11 00:45:22;;;;;;;18.50;13.82;;;16.10;93.80;;;;;;5014061;28;20117;-50
2021/07/11 00:47:48;;;;;;;19.02;13.38;;;16.10;93.80;;;;;;5001555;28;20115;-55
2021/07/11 00:50:18;;;;;;;18.17;13.80;;;16.10;93.90;;;;;;5000823;28;20487;-50
2021/07/11 00:52:44;;;;;;;21.77;13.43;;;16.10;93.80;;;;;;5011758;28;20045;-49
2021/07/11 00:55:11;;;;;;;26.45;13.35;;;16.10;93.70;;;;;;5009084;28;20096;-52
2021/07/11 00:57:37;;;;;;;16.83;13.68;;;16.10;94.00;;;;;;5016429;28;20406;-54
2021/07/11 01:00:11;;;;;;;21.75;14.80;;;16.20;93.60;;;;;;5005930;28;20125;-50
2021/07/11 01:02:53;;;;;;;18.60;14.07;;;16.10;93.80;;;;;;5018951;28;20313;-54
2021/07/11 01:05:22;;;;;;;19.42;14.55;;;16.20;93.60;;;;;;5005245;28;20041;-54
2021/07/11 01:08:00;;;;;;;18.30;14.23;;;16.10;93.60;;;;;;5003385;28;20053;-55
2021/07/11 01:10:55;;;;;;;16.48;13.93;;;16.10;93.70;;;;;;5013999;28;20136;-51
2021/07/11 01:13:23;;;;;;;19.17;13.60;;;16.10;93.80;;;;;;5013384;28;20053;-54
2021/07/11 01:15:53;;;;;;;19.88;14.05;;;16.10;93.80;;;;;;5031353;28;20042;-52
2021/07/11 01:18:21;;;;;;;20.23;14.68;;;16.10;93.90;;;;;;5001443;28;20514;-52
2021/07/11 01:21:06;;;;;;;21.02;14.65;;;16.10;93.80;;;;;;5002292;28;20363;-55
2021/07/11 01:23:58;;;;;;;18.88;14.20;;;16.10;93.70;;;;;;4999222;28;20042;-52
2021/07/11 01:26:27;;;;;;;17.58;13.77;;;16.10;93.60;;;;;;5005963;28;20038;-54
2021/07/11 01:28:54;;;;;;;15.82;13.50;;;16.10;93.60;;;;;;5017718;28;20050;-49
2021/07/11 01:31:22;;;;;;;22.77;14.15;;;16.10;93.60;;;;;;5008293;28;20068;-51
2021/07/11 01:33:49;;;;;;;18.15;14.13;;;16.10;93.50;;;;;;5014371;28;20054;-54
2021/07/11 01:36:18;;;;;;;19.38;14.60;;;16.00;93.70;;;;;;4996842;28;20095;-50
2021/07/11 01:38:46;;;;;;;16.67;13.38;;;16.10;93.50;;;;;;5005065;28;20049;-53
2021/07/11 01:41:13;;;;;;;18.17;13.77;;;16.10;93.40;;;;;;5009057;28;20047;-53
2021/07/11 01:43:40;;;;;;;18.02;13.65;;;16.10;93.40;;;;;;5013105;28;20069;-55
2021/07/11 01:46:08;;;;;;;16.55;12.80;;;16.10;93.30;;;;;;5002228;28;20042;-52
2021/07/11 01:48:36;;;;;;;19.00;14.02;;;16.10;93.40;;;;;;5015222;28;20046;-52
2021/07/11 01:51:02;;;;;;;19.60;13.45;;;16.20;93.20;;;;;;5003222;28;20072;-52
2021/07/11 01:53:38;;;;;;;18.35;13.77;;;16.10;93.20;;;;;;5010786;28;20041;-51
2021/07/11 01:56:06;;;;;;;18.33;13.90;;;16.10;93.40;;;;;;5008691;28;20041;-50
2021/07/11 01:58:34;;;;;;;19.10;13.90;;;16.10;93.20;;;;;;5004197;28;20050;-53
2021/07/11 02:01:01;;;;;;;17.05;13.18;;;16.10;93.20;;;;;;5012784;28;20053;-51
2021/07/11 02:03:27;;;;;;;16.90;13.63;;;16.10;93.30;;;;;;5011944;28;20125;-51
2021/07/11 02:05:53;;;;;;;18.23;13.50;;;16.10;93.00;;;;;;4998142;28;20138;-55
2021/07/11 02:08:20;;;;;;;18.67;13.77;;;16.10;93.00;;;;;;5010796;28;20038;-52
2021/07/11 02:10:48;;;;;;;19.65;13.70;;;16.10;92.90;;;;;;5013079;28;20120;-51
2021/07/11 02:13:23;;;;;;;17.58;12.68;;;16.10;93.00;;;;;;5003418;28;20042;-51
2021/07/11 02:15:50;;;;;;;18.35;12.00;;;16.10;92.80;;;;;;5008308;28;20034;-49
2021/07/11 02:18:19;;;;;;;18.10;12.68;;;16.20;92.40;;;;;;4998449;28;20495;-52
2021/07/11 02:20:49;;;;;;;20.40;13.25;;;16.10;92.40;;;;;;5001209;28;20038;-51
2021/07/11 02:23:17;;;;;;;16.23;12.82;;;16.10;92.50;;;;;;5010398;28;20435;-54
2021/07/11 02:25:46;;;;;;;16.88;13.35;;;16.00;92.80;;;;;;4996644;28;20038;-51
2021/07/11 02:28:12;;;;;;;15.55;12.15;;;16.00;92.80;;;;;;4996099;28;20452;-51
2021/07/11 02:30:51;;;;;;;19.38;13.32;;;16.00;92.60;;;;;;4999944;28;20045;-49
2021/07/11 02:33:26;;;;;;;16.35;12.40;;;16.00;92.70;;;;;;5004149;28;20038;-51
2021/07/11 02:35:53;;;;;;;16.25;12.45;;;16.00;92.50;;;;;;5012155;28;20038;-51
2021/07/11 02:38:20;;;;;;;17.88;12.75;;;16.00;92.50;;;;;;5012974;28;20034;-50
2021/07/11 02:40:47;;;;;;;19.95;14.63;;;16.10;92.40;;;;;;5013671;28;20046;-53
2021/07/11 02:43:15;;;;;;;15.52;12.70;;;16.00;92.60;;;;;;5012808;28;20046;-51
2021/07/11 02:45:44;;;;;;;17.23;12.95;;;16.10;92.50;;;;;;5014124;28;20510;-52
2021/07/11 02:48:13;;;;;;;18.40;13.25;;;16.10;92.20;;;;;;5011082;28;20482;-52
2021/07/11 02:50:43;;;;;;;16.50;12.15;;;16.00;92.40;;;;;;5009415;28;20038;-53
2021/07/11 02:53:10;;;;;;;18.00;12.82;;;16.10;92.20;;;;;;5012647;28;20038;-52
2021/07/11 02:55:39;;;;;;;15.73;12.82;;;16.00;92.20;;;;;;5011818;28;20042;-55
2021/07/11 02:58:13;;;;;;;16.17;13.25;;;16.00;92.40;;;;;;5011601;28;20134;-51
2021/07/11 03:00:41;;;;;;;18.15;13.27;;;16.00;92.20;;;;;;5002810;28;20046;-49
2021/07/11 03:03:10;;;;;;;19.15;13.63;;;16.10;92.20;;;;;;5008111;28;20041;-52
2021/07/11 03:05:37;;;;;;;17.02;12.73;;;16.00;92.30;;;;;;5005178;28;20041;-52
2021/07/11 03:08:03;;;;;;;18.00;12.50;;;15.90;92.60;;;;;;5010856;28;20056;-50
2021/07/11 03:10:29;;;;;;;17.50;11.88;;;15.90;92.40;;;;;;5001404;28;20045;-50
2021/07/11 03:13:00;;;;;;;14.65;12.35;;;15.90;92.60;;;;;;5008791;28;20046;-51
2021/07/11 03:15:26;;;;;;;20.08;13.73;;;16.00;92.50;;;;;;5011181;28;20038;-53
2021/07/11 03:17:54;;;;;;;18.23;12.13;;;15.90;92.60;;;;;;5012382;28;20410;-51
2021/07/11 03:20:21;;;;;;;16.00;12.13;;;15.90;92.60;;;;;;5006955;28;20038;-53
2021/07/11 03:22:50;;;;;;;17.85;13.00;;;15.80;92.60;;;;;;5001907;28;20514;-54
2021/07/11 03:25:16;;;;;;;18.27;13.23;;;15.80;92.80;;;;;;5007734;28;20039;-54
2021/07/11 03:27:42;;;;;;;19.88;13.10;;;15.80;92.80;;;;;;5004474;28;20048;-52
2021/07/11 03:30:13;;;;;;;19.83;12.65;;;15.80;92.60;;;;;;5011869;28;20133;-53
2021/07/11 03:32:44;;;;;;;21.65;13.15;;;15.80;92.50;;;;;;4999025;28;20495;-51
2021/07/11 03:35:11;;;;;;;18.40;12.90;;;15.90;92.60;;;;;;5011305;28;20065;-51
2021/07/11 03:37:41;;;;;;;20.45;13.43;;;15.90;92.80;;;;;;5011359;28;20513;-52
2021/07/11 03:40:09;;;;;;;17.52;13.23;;;15.80;92.90;;;;;;4974658;28;20050;-51
2021/07/11 03:42:42;;;;;;;15.57;12.52;;;15.80;92.60;;;;;;5009556;28;20449;-52
2021/07/11 03:45:10;;;;;;;16.30;12.52;;;15.90;92.30;;;;;;5000958;28;20041;-52
2021/07/11 03:47:42;;;;;;;16.95;12.63;;;15.90;92.50;;;;;;5009711;28;20034;-49
2021/07/11 03:50:10;;;;;;;18.58;13.25;;;15.80;92.50;;;;;;5027833;28;20049;-52
2021/07/11 03:52:49;;;;;;;17.15;13.13;;;15.90;92.50;;;;;;5014460;28;20076;-52
2021/07/11 03:55:18;;;;;;;18.45;12.23;;;15.80;92.60;;;;;;4998091;28;20057;-52
2021/07/11 03:57:48;;;;;;;17.45;13.15;;;15.80;92.70;;;;;;4983702;28;20045;-50
2021/07/11 04:00:16;;;;;;;17.48;13.13;;;15.70;92.90;;;;;;5011302;28;20038;-50
2021/07/11 04:02:47;;;;;;;18.65;12.82;;;15.70;93.00;;;;;;5011083;28;20111;-51
2021/07/11 04:05:15;;;;;;;19.35;14.20;;;15.70;93.00;;;;;;5010946;28;20037;-53
2021/07/11 04:07:42;;;;;;;17.25;13.25;;;15.70;92.90;;;;;;5010382;28;20113;-54
2021/07/11 04:10:11;;;;;;;17.40;13.23;;;15.70;92.90;;;;;;4997969;28;20040;-51
2021/07/11 04:12:37;;;;;;;19.15;13.35;;;15.70;93.00;;;;;;5010185;28;20046;-53
2021/07/11 04:15:04;;;;;;;18.88;13.25;;;15.80;92.70;;;;;;4993278;28;20038;-52
2021/07/11 04:17:32;;;;;;;20.35;13.20;;;15.90;92.60;;;;;;5010701;28;20065;-53
2021/07/11 04:20:01;;;;;;;17.20;13.88;;;15.90;92.50;;;;;;5009261;28;20080;-54
2021/07/11 04:22:29;;;;;;;16.55;12.55;;;15.80;92.60;;;;;;5010584;28;20053;-53
2021/07/11 04:24:55;;;;;;;16.83;13.50;;;15.80;92.80;;;;;;5009685;28;20399;-52
2021/07/11 04:27:23;;;;;;;20.52;14.05;;;15.80;92.60;;;;;;5010833;28;20033;-50
2021/07/11 04:29:52;;;;;;;19.00;13.27;;;15.90;92.70;;;;;;5010406;28;20040;-52
2021/07/11 04:32:18;;;;;;;20.13;14.07;;;15.90;92.80;;;;;;4998056;28;20042;-54
2021/07/11 04:34:44;;;;;;;19.13;13.88;;;15.90;92.60;;;;;;5009803;28;20034;-49
2021/07/11 04:37:11;;;;;;;19.48;13.20;;;15.90;92.60;;;;;;5000678;28;20049;-53
2021/07/11 04:39:38;;;;;;;17.50;13.30;;;15.90;92.80;;;;;;5010829;28;20054;-53
2021/07/11 04:42:05;;;;;;;19.15;13.30;;;15.90;92.70;;;;;;4993434;28;20104;-50
2021/07/11 04:44:32;;;;;;;18.80;13.68;;;15.90;92.70;;;;;;5013131;28;20120;-51
2021/07/11 04:46:58;;;;;;;18.73;13.48;;;15.90;92.70;;;;;;5014939;28;20430;-51
2021/07/11 04:49:30;;;;;;;17.92;13.85;;;15.90;92.70;;;;;;5009090;28;20414;-53
2021/07/11 04:51:57;;;;;;;19.25;14.15;;;15.90;92.70;;;;;;5005632;28;20209;-50
2021/07/11 04:54:23;;;;;;;18.85;13.50;;;15.90;92.40;;;;;;5010208;28;20041;-51
2021/07/11 04:56:49;;;;;;;16.65;13.27;;;15.90;92.80;;;;;;5005146;28;20042;-52
2021/07/11 04:59:15;;;;;;;16.90;13.32;;;16.00;92.50;;;;;;5009623;28;20056;-52
2021/07/11 05:01:42;;;;;;;21.45;14.63;;;15.90;92.80;;;;;;5010873;28;20052;-52
2021/07/11 05:04:08;;;;;;;19.35;14.43;;;16.00;92.50;;;;;;5009619;28;20049;-54
2021/07/11 05:06:34;;;;;;;19.05;13.75;;;16.00;92.50;;;;;;5012897;28;20045;-53
2021/07/11 05:09:03;;;;;;;18.70;13.38;;;15.90;92.70;;;;;;5015414;28;20120;-50
2021/07/11 05:11:29;;;;;;;17.98;13.02;;;15.90;92.90;;;;;;5014155;28;20072;-55
2021/07/11 05:13:54;;;;;;;19.00;14.05;;;15.90;92.70;;;;;;5013746;28;20069;-51
2021/07/11 05:16:21;;;;;;;20.05;14.48;;;16.00;92.80;;;;;;5008457;28;20037;-52
2021/07/11 05:18:47;;;;;;;18.13;13.57;;;16.00;92.70;;;;;;5014035;28;20068;-52
2021/07/11 05:21:13;;;;;;;18.77;14.07;;;16.00;92.70;;;;;;5017909;28;20048;-52
2021/07/11 05:23:39;;;;;;;18.38;13.73;;;16.00;92.60;;;;;;5013649;28;20096;-54
2021/07/11 05:26:05;;;;;;;19.17;14.05;;;16.00;92.80;;;;;;5011371;28;20044;-53
2021/07/11 05:28:31;;;;;;;18.23;13.65;;;16.10;92.60;;;;;;5012804;28;20070;-55
2021/07/11 05:30:57;;;;;;;21.73;13.95;;;16.10;92.50;;;;;;5011679;28;20060;-52
2021/07/11 05:33:22;;;;;;;18.65;14.13;;;16.10;92.80;;;;;;5013689;28;20520;-50
2021/07/11 05:35:48;;;;;;;20.02;13.65;;;16.10;92.70;;;;;;5014392;28;20069;-49
2021/07/11 05:38:14;;;;;;;18.13;13.05;;;16.10;92.80;;;;;;5007147;28;20132;-50
2021/07/11 05:40:41;;;;;;;20.13;14.05;;;16.10;92.90;;;;;;4993663;28;20050;-51
2021/07/11 05:43:07;;;;;;;17.85;13.70;;;16.20;92.80;;;;;;5014448;28;20042;-54
2021/07/11 05:45:33;;;;;;;20.98;14.10;;;16.30;92.60;;;;;;5018928;28;20068;-52
2021/07/11 05:48:00;;;;;;;19.90;15.05;;;16.30;92.40;;;;;;5007354;28;20136;-51
2021/07/11 05:50:26;;;;;;;24.35;13.85;;;16.30;92.40;;;;;;5011422;28;20104;-53
2021/07/11 05:52:51;;;;;;;20.65;14.48;;;16.30;92.40;;;;;;5016916;28;20066;-49
2021/07/11 05:55:17;;;;;;;19.42;13.77;;;16.40;91.90;;;;;;5008918;28;20084;-52
2021/07/11 05:57:43;;;;;;;21.33;13.88;;;16.50;91.90;;;;;;5012999;28;20042;-49
2021/07/11 06:00:11;;;;;;;19.48;14.20;;;16.40;92.10;;;;;;5013870;28;20045;-51
2021/07/11 06:02:39;;;;;;;20.90;14.23;;;16.40;92.40;;;;;;5013063;28;20096;-51
2021/07/11 06:05:06;;;;;;;19.75;13.65;;;16.50;92.10;;;;;;4995892;28;20457;-52
2021/07/11 06:07:34;;;;;;;16.90;13.25;;;16.60;91.90;;;;;;5011591;28;20053;-52
2021/07/11 06:10:00;;;;;;;23.67;15.25;;;16.60;91.90;;;;;;5014075;28;20030;-54
2021/07/11 06:12:26;;;;;;;18.83;13.52;;;16.60;91.90;;;;;;5004518;28;20042;-52
2021/07/11 06:14:54;;;;;;;20.35;15.43;;;16.60;92.20;;;;;;5011836;28;20500;-51
2021/07/11 06:17:20;;;;;;;19.13;13.45;;;16.70;92.10;;;;;;5021828;28;20573;-54
2021/07/11 06:19:47;;;;;;;20.38;14.25;;;16.80;92.20;;;;;;5025694;28;20033;-53
2021/07/11 06:22:13;;;;;;;23.60;14.40;;;16.90;91.80;;;;;;5007365;28;20383;-51
2021/07/11 06:24:39;;;;;;;22.58;15.18;;;16.80;92.10;;;;;;5029121;28;20045;-52
2021/07/11 06:27:04;;;;;;;19.00;14.50;;;17.00;91.60;;;;;;5004588;28;20168;-52
2021/07/11 06:29:30;;;;;;;21.48;15.20;;;17.10;91.70;;;;;;5021305;28;20054;-55
2021/07/11 06:31:56;;;;;;;22.58;14.38;;;17.10;91.40;;;;;;5016670;28;20041;-55
2021/07/11 06:34:21;;;;;;;20.40;13.98;;;17.20;91.30;;;;;;5032048;28;20037;-54
2021/07/11 06:36:47;;;;;;;17.48;14.02;;;17.30;91.00;;;;;;5016588;28;20050;-55
2021/07/11 06:39:13;;;;;;;19.58;14.07;;;17.30;91.30;;;;;;5012960;28;20474;-55
2021/07/11 06:41:39;;;;;;;21.23;14.73;;;17.30;91.40;;;;;;5011559;28;20172;-55
2021/07/11 06:44:05;;;;;;;17.95;14.25;;;17.30;91.90;;;;;;5006746;28;20053;-55
2021/07/11 06:46:31;;;;;;;18.98;14.10;;;17.40;91.80;;;;;;5020327;28;20045;-52
2021/07/11 06:48:57;;;;;;;22.02;15.75;;;17.50;91.10;;;;;;5011343;28;20040;-53
2021/07/11 06:51:22;;;;;;;19.52;14.80;;;17.60;91.10;;;;;;5013960;28;20045;-54
2021/07/11 06:53:48;;;;;;;19.95;14.13;;;17.60;91.10;;;;;;5024268;28;20485;-54
2021/07/11 06:56:13;;;;;;;19.55;14.25;;;17.60;91.10;;;;;;5011897;28;20050;-52
2021/07/11 06:58:39;;;;;;;21.67;14.60;;;17.60;91.10;;;;;;5008316;28;20053;-54
2021/07/11 07:01:04;;;;;;;19.92;14.43;;;17.70;90.60;;;;;;5012055;28;20058;-55
2021/07/11 07:03:31;;;;;;;19.27;14.40;;;17.70;90.70;;;;;;5011048;28;20081;-55
2021/07/11 07:05:56;;;;;;;22.42;15.05;;;17.70;90.50;;;;;;5011807;28;20061;-55
2021/07/11 07:08:25;;;;;;;22.02;15.35;;;17.70;90.60;;;;;;5011814;28;20411;-54
2021/07/11 07:10:51;;;;;;;18.40;14.93;;;17.70;90.80;;;;;;5023890;28;20087;-53
2021/07/11 07:13:17;;;;;;;21.27;15.05;;;17.70;90.70;;;;;;5013098;28;20045;-52
2021/07/11 07:15:42;;;;;;;18.95;14.75;;;17.80;90.60;;;;;;5011909;28;20046;-54
2021/07/11 07:18:08;;;;;;;20.27;14.93;;;17.70;90.80;;;;;;5011591;28;20076;-55
2021/07/11 07:20:34;;;;;;;20.83;15.55;;;17.80;91.00;;;;;;5012886;28;20052;-54
2021/07/11 07:23:00;;;;;;;17.38;14.35;;;17.90;90.00;;;;;;5024449;28;20133;-51
2021/07/11 07:25:26;;;;;;;17.80;13.95;;;18.00;90.20;;;;;;4993997;28;20046;-49
2021/07/11 07:27:52;;;;;;;20.73;14.48;;;18.00;90.60;;;;;;5014476;28;20449;-51
2021/07/11 07:30:19;;;;;;;20.27;14.10;;;18.20;90.10;;;;;;5012337;28;20042;-49
2021/07/11 07:32:50;;;;;;;18.05;13.98;;;18.30;90.40;;;;;;4994173;28;20077;-50
2021/07/11 07:35:17;;;;;;;18.67;14.32;;;18.40;90.10;;;;;;5011804;28;20045;-53
2021/07/11 07:37:43;;;;;;;18.33;14.57;;;18.60;90.30;;;;;;5011030;28;20064;-54
2021/07/11 07:40:10;;;;;;;18.25;14.35;;;18.70;90.00;;;;;;5024439;28;20163;-54
2021/07/11 07:42:36;;;;;;;19.60;15.18;;;18.90;90.10;;;;;;5011495;28;20037;-55
2021/07/11 07:45:04;;;;;;;17.63;14.63;;;19.00;89.90;;;;;;4993458;28;20030;-54
2021/07/11 07:47:30;;;;;;;21.02;15.32;;;19.20;89.90;;;;;;5005115;28;20042;-52
2021/07/11 07:49:56;;;;;;;19.65;15.35;;;19.20;89.70;;;;;;5000039;28;20064;-53
2021/07/11 07:52:23;;;;;;;18.15;13.98;;;19.40;90.00;;;;;;5008103;28;20524;-53
2021/07/11 07:54:48;;;;;;;18.50;14.50;;;19.40;89.20;;;;;;5011703;28;20043;-54
2021/07/11 07:57:15;;;;;;;18.00;14.25;;;19.50;88.80;;;;;;5009682;28;20054;-55
2021/07/11 07:59:41;;;;;;;19.55;14.57;;;19.60;88.70;;;;;;5009653;28;20042;-55
2021/07/11 08:02:07;;;;;;;18.88;14.77;;;19.70;89.00;;;;;;4974842;28;20408;-55
2021/07/11 08:04:33;;;;;;;18.27;14.70;;;19.80;88.60;;;;;;5000967;28;20050;-55
2021/07/11 08:06:59;;;;;;;17.77;14.30;;;19.90;88.70;;;;;;5005815;28;20038;-54
2021/07/11 08:09:25;;;;;;;17.63;14.90;;;20.00;88.30;;;;;;5008644;28;20045;-54
2021/07/11 08:11:51;;;;;;;20.17;15.52;;;20.10;87.50;;;;;;5010273;28;20125;-54
2021/07/11 08:14:17;;;;;;;20.45;15.50;;;20.10;87.10;;;;;;5012961;28;20034;-54
2021/07/11 08:16:43;;;;;;;19.65;14.75;;;20.10;86.90;;;;;;5010686;28;20038;-53
2021/07/11 08:19:09;;;;;;;17.30;15.00;;;20.10;86.70;;;;;;5010621;28;20041;-54
2021/07/11 08:21:34;;;;;;;17.25;14.57;;;20.20;86.50;;;;;;5010361;28;20042;-54
2021/07/11 08:24:01;;;;;;;17.92;14.80;;;20.30;86.60;;;;;;5008735;28;20548;-54
2021/07/11 08:26:26;;;;;;;17.60;13.40;;;20.40;86.90;;;;;;5008999;28;20100;-55
2021/07/11 08:28:52;;;;;;;17.98;15.30;;;20.40;86.70;;;;;;5015493;28;20038;-53
2021/07/11 08:31:18;;;;;;;20.73;15.63;;;20.40;86.80;;;;;;5010750;28;20042;-55
2021/07/11 08:33:43;;;;;;;20.45;14.85;;;20.40;87.00;;;;;;5010096;28;20457;-54
2021/07/11 08:36:09;;;;;;;19.17;15.65;;;20.30;86.70;;;;;;5009699;28;20030;-54
2021/07/11 08:38:35;;;;;;;18.75;15.52;;;20.30;86.40;;;;;;5009741;28;20049;-54
2021/07/11 08:41:01;;;;;;;18.42;15.38;;;20.30;86.30;;;;;;5017051;28;20041;-54
2021/07/11 08:43:28;;;;;;;18.00;14.73;;;20.30;85.50;;;;;;5021988;28;20087;-54
2021/07/11 08:45:54;;;;;;;17.50;14.55;;;20.30;85.30;;;;;;5018505;28;20038;-54
2021/07/11 08:48:19;;;;;;;21.00;15.23;;;20.30;86.10;;;;;;5021121;28;20060;-54
2021/07/11 08:50:45;;;;;;;17.60;13.60;;;20.40;86.20;;;;;;5015327;28;20426;-54
2021/07/11 08:53:15;;;;;;;19.00;14.45;;;20.40;85.90;;;;;;5016808;28;20160;-55
2021/07/11 08:55:42;;;;;;;18.88;13.70;;;20.50;85.90;;;;;;5015145;28;20049;-52
2021/07/11 08:58:09;;;;;;;16.67;14.25;;;20.50;86.00;;;;;;5017115;28;20092;-53
2021/07/11 09:00:37;;;;;;;16.88;14.15;;;20.50;86.00;;;;;;5017957;28;20494;-49
2021/07/11 09:03:04;;;;;;;16.65;14.18;;;20.60;86.50;;;;;;5011071;28;20076;-54
2021/07/11 09:05:39;;;;;;;17.30;13.27;;;20.70;86.50;;;;;;4990996;28;20422;-54
2021/07/11 09:08:13;;;;;;;15.55;13.63;;;20.70;86.70;;;;;;5009108;28;20046;-54
2021/07/11 09:10:53;;;;;;;16.80;13.75;;;20.70;86.40;;;;;;5018505;28;20045;-53
2021/07/11 09:13:21;;;;;;;19.17;14.73;;;20.80;86.50;;;;;;5018593;28;20038;-54
2021/07/11 09:15:57;;;;;;;16.23;13.48;;;20.90;86.70;;;;;;5015408;28;20091;-54
2021/07/11 09:18:28;;;;;;;19.77;13.80;;;21.00;86.10;;;;;;5013399;28;20045;-51
2021/07/11 09:20:59;;;;;;;19.60;15.48;;;21.00;85.80;;;;;;4995260;28;20048;-55
2021/07/11 09:23:26;;;;;;;19.67;14.75;;;21.10;82.20;;;;;;5007695;28;20056;-54
2021/07/11 09:26:00;;;;;;;19.25;15.05;;;21.10;83.00;;;;;;5018761;28;20595;-54
2021/07/11 09:28:28;;;;;;;20.60;15.40;;;21.00;83.50;;;;;;5019425;28;20434;-54
2021/07/11 09:31:11;;;;;;;20.52;15.00;;;21.10;82.90;;;;;;5012542;28;20042;-54
2021/07/11 09:33:41;;;;;;;18.95;15.40;;;20.90;83.40;;;;;;5013661;28;20091;-54
2021/07/11 09:36:15;;;;;;;19.40;16.40;;;20.90;83.20;;;;;;5012087;28;20198;-55
2021/07/11 09:38:41;;;;;;;19.45;15.93;;;21.00;81.60;;;;;;5014401;28;20045;-55
2021/07/11 09:41:14;;;;;;;17.77;15.38;;;20.90;82.50;;;;;;5014244;28;20580;-55
2021/07/11 09:43:41;;;;;;;20.40;15.82;;;20.90;84.00;;;;;;5012910;28;20064;-54
2021/07/11 09:46:12;;;;;;;19.42;16.20;;;21.00;83.20;;;;;;5007723;28;20411;-54
2021/07/11 09:48:38;;;;;;;18.17;15.05;;;21.20;82.30;;;;;;5013108;28;20455;-53
2021/07/11 09:51:14;;;;;;;19.38;15.25;;;21.20;83.00;;;;;;5016134;28;20073;-54
2021/07/11 09:53:40;;;;;;;19.33;15.60;;;21.30;83.00;;;;;;5012811;28;20122;-55
2021/07/11 09:56:05;;;;;;;20.60;16.67;;;21.30;80.50;;;;;;5021919;28;20128;-54
2021/07/11 09:58:33;;;;;;;20.17;15.93;;;21.30;80.50;;;;;;5011664;28;20041;-55
2021/07/11 10:00:58;;;;;;;19.88;15.75;;;21.20;80.90;;;;;;5012880;28;20038;-51
2021/07/11 10:03:25;;;;;;;18.35;16.02;;;21.20;80.90;;;;;;5014068;28;20042;-55
2021/07/11 10:05:51;;;;;;;17.70;14.85;;;21.20;81.00;;;;;;5011500;28;20096;-53
2021/07/11 10:08:17;;;;;;;21.98;16.42;;;21.30;80.90;;;;;;5005051;28;20042;-55
2021/07/11 10:10:43;;;;;;;18.73;15.85;;;21.30;79.20;;;;;;5006017;28;20451;-54
2021/07/11 10:13:09;;;;;;;17.10;15.20;;;21.30;80.70;;;;;;5013911;28;20065;-53
2021/07/11 10:15:37;;;;;;;19.20;15.43;;;21.20;81.40;;;;;;5011545;28;20046;-54
2021/07/11 10:18:12;;;;;;;25.30;16.42;;;21.20;80.90;;;;;;5010740;28;20069;-54
2021/07/11 10:20:41;;;;;;;17.63;15.55;;;21.20;81.00;;;;;;5009538;28;20069;-54
2021/07/11 10:23:08;;;;;;;18.35;15.93;;;21.20;81.50;;;;;;5011859;28;20483;-54
2021/07/11 10:25:37;;;;;;;21.45;18.77;;;21.20;81.90;;;;;;5014354;28;20399;-51
2021/07/11 10:28:07;;;;;;;21.58;18.27;;;21.30;80.40;;;;;;5010318;28;20071;-54
2021/07/11 10:30:34;;;;;;;21.98;17.33;;;21.20;80.40;;;;;;5012139;28;20057;-55
2021/07/11 10:33:15;;;;;;;20.92;15.68;;;21.30;80.50;;;;;;5009922;28;20049;-55
2021/07/11 10:36:03;;;;;;;19.20;16.92;;;21.30;81.30;;;;;;5010045;28;20050;-55
2021/07/11 10:38:44;;;;;;;20.55;16.30;;;21.20;81.20;;;;;;5010316;28;20050;-51
2021/07/11 10:41:16;;;;;;;18.58;16.33;;;21.10;81.50;;;;;;5027359;28;20581;-53
2021/07/11 10:44:08;;;;;;;19.23;17.25;;;21.00;82.00;;;;;;5012561;28;20517;-55
2021/07/11 10:46:36;;;;;;;19.20;17.08;;;21.00;83.20;;;;;;5014361;28;20045;-54
2021/07/11 10:49:20;;;;;;;21.80;18.15;;;21.10;82.50;;;;;;5012079;28;20064;-53
2021/07/11 10:51:46;;;;;;;25.65;16.88;;;21.10;80.80;;;;;;5012133;28;20554;-53
2021/07/11 10:54:27;;;;;;;16.35;14.63;;;21.10;81.70;;;;;;5013740;28;20550;-54
2021/07/11 10:56:57;;;;;;;18.53;16.33;;;21.20;81.30;;;;;;5012356;28;20037;-53
2021/07/11 10:59:35;;;;;;;19.70;15.85;;;21.10;81.60;;;;;;5012304;28;20073;-53
2021/07/11 11:02:19;;;;;;;16.30;14.43;;;21.10;82.60;;;;;;5011841;28;20044;-52
2021/07/11 11:05:13;;;;;;;17.92;15.38;;;21.10;82.30;;;;;;5009933;28;20060;-51
2021/07/11 11:07:45;;;;;;;17.80;14.95;;;21.20;81.30;;;;;;5012070;28;20453;-52
2021/07/11 11:10:32;;;;;;;17.85;14.23;;;21.20;81.40;;;;;;5008010;28;20109;-52
2021/07/11 11:13:06;;;;;;;18.58;14.38;;;21.30;81.60;;;;;;5008402;28;20050;-52
2021/07/11 11:15:40;;;;;;;17.15;13.48;;;21.40;81.70;;;;;;5011809;28;20040;-52
2021/07/11 11:18:12;;;;;;;15.82;13.98;;;21.50;81.20;;;;;;5005887;28;20042;-51
2021/07/11 11:20:39;;;;;;;16.80;15.05;;;21.70;80.40;;;;;;5011937;28;20092;-53
2021/07/11 11:23:09;;;;;;;19.63;15.35;;;21.70;79.60;;;;;;5011773;28;20045;-51
2021/07/11 11:25:35;;;;;;;20.85;15.85;;;21.90;79.40;;;;;;5011526;28;20475;-52
2021/07/11 11:28:01;;;;;;;20.33;15.30;;;22.00;78.60;;;;;;5005263;28;20073;-50
2021/07/11 11:30:27;;;;;;;19.00;15.73;;;22.00;78.10;;;;;;5013793;28;20046;-51
2021/07/11 11:32:56;;;;;;;17.58;14.38;;;22.00;77.30;;;;;;5010639;28;20050;-53
2021/07/11 11:35:24;;;;;;;17.05;14.35;;;21.90;77.60;;;;;;5012698;28;20057;-54
2021/07/11 11:37:55;;;;;;;17.17;14.50;;;21.80;78.50;;;;;;5009594;28;20116;-54
2021/07/11 11:40:23;;;;;;;16.15;14.07;;;21.80;78.30;;;;;;5010861;28;20046;-51
2021/07/11 11:42:54;;;;;;;16.45;14.00;;;21.60;79.60;;;;;;5010925;28;20029;-52
2021/07/11 11:45:24;;;;;;;15.05;12.27;;;21.60;79.30;;;;;;5008851;28;20046;-52
2021/07/11 11:48:11;;;;;;;14.50;12.98;;;21.60;80.00;;;;;;5000783;28;20030;-51
2021/07/11 11:50:42;;;;;;;16.67;13.45;;;21.60;80.10;;;;;;5006427;28;20053;-51
2021/07/11 11:53:13;;;;;;;15.85;12.57;;;21.60;79.90;;;;;;5010667;28;20819;-54
2021/07/11 11:55:49;;;;;;;14.50;12.43;;;21.70;78.30;;;;;;4993564;28;20037;-54
2021/07/11 11:58:31;;;;;;;15.38;13.13;;;21.80;77.00;;;;;;5011165;28;20096;-54
2021/07/11 12:01:04;;;;;;;13.63;11.30;;;21.90;77.90;;;;;;5020358;28;20046;-53
2021/07/11 12:03:30;;;;;;;16.52;11.48;;;22.10;78.00;;;;;;5011233;28;20034;-55
2021/07/11 12:06:01;;;;;;;13.52;12.10;;;22.20;79.00;;;;;;5001332;28;20041;-54
2021/07/11 12:08:42;;;;;;;16.70;13.30;;;22.30;78.90;;;;;;5010487;28;20053;-54
2021/07/11 12:11:09;;;;;;;13.80;11.60;;;22.50;74.80;;;;;;5011981;28;20445;-51
2021/07/11 12:13:35;;;;;;;15.15;11.82;;;22.50;74.60;;;;;;5005774;28;20045;-52
2021/07/11 12:16:03;;;;;;;12.07;10.82;;;22.60;75.70;;;;;;5011170;28;20033;-52
2021/07/11 12:18:44;;;;;;;14.77;12.35;;;22.70;76.60;;;;;;5010094;28;20400;-55
2021/07/11 12:21:10;;;;;;;16.33;12.88;;;22.80;75.50;;;;;;5016424;28;20038;-51
2021/07/11 12:23:36;;;;;;;11.75;10.35;;;22.90;76.10;;;;;;5003848;28;20049;-49
2021/07/11 12:26:05;;;;;;;11.82;9.50;;;23.10;75.50;;;;;;5011117;28;20037;-53
2021/07/11 12:28:32;;;;;;;11.48;9.98;;;23.30;75.00;;;;;;5007597;28;20045;-54
2021/07/11 12:30:58;;;;;;;10.63;9.52;;;23.50;72.40;;;;;;5005091;28;20044;-53
2021/07/11 12:33:33;;;;;;;13.07;11.57;;;23.50;72.20;;;;;;4965834;28;20125;-52
2021/07/11 12:36:03;;;;;;;13.10;10.32;;;23.50;71.20;;;;;;5011377;28;20044;-53